Time;durP1;ratioP1;P1;durP2;ratioP2;P2;SDS_P1;SDS_P2;PMS_P1;PMS_P2;Temp;Humidity;BMP_temperature;BMP_pressure;BME280_temperature;BME280_humidity;BME280_pressure;Samples;Min_cycle;Max_cycle;Signal;HPM_P1;HPM_P2
2022/01/16 00:00:40;;;;;;;0.00;0.00;;;;;;;;;;5068906;28;20055;-64
2022/01/16 00:05:50;;;;;;;0.82;0.80;;;;;;;;;;5079784;28;20024;-57
2022/01/16 00:08:15;;;;;;;0.52;0.40;;;;;;;;;;5071626;28;20016;-58
2022/01/16 00:10:40;;;;;;;2.05;1.65;;;;;;;;;;5074288;28;20489;-58
2022/01/16 00:13:06;;;;;;;1.50;1.45;;;;;;;;;;5075990;28;20401;-58
2022/01/16 00:15:31;;;;;;;1.70;0.63;;;;;;;;;;5078244;28;20028;-59
2022/01/16 00:18:08;;;;;;;0.73;0.73;;;;;;;;;;5079501;28;20032;-59
2022/01/16 00:20:33;;;;;;;0.00;0.00;;;;;;;;;;5069551;28;20031;-58
2022/01/16 00:22:59;;;;;;;0.00;0.00;;;;;;;;;;5076467;28;20024;-58
2022/01/16 00:25:24;;;;;;;0.00;0.00;;;;;;;;;;5075930;28;20024;-59
2022/01/16 00:27:50;;;;;;;0.00;0.00;;;;;;;;;;5085644;28;20046;-59
2022/01/16 00:30:16;;;;;;;0.77;0.77;;;;;;;;;;5081030;28;20026;-59
2022/01/16 00:32:41;;;;;;;0.10;0.10;;;;;;;;;;5078814;28;20118;-58
2022/01/16 00:35:07;;;;;;;0.65;0.43;;;;;;;;;;5084653;28;20019;-59
2022/01/16 00:37:32;;;;;;;0.43;0.43;;;;;;;;;;5078645;28;20029;-58
2022/01/16 00:39:57;;;;;;;0.15;0.15;;;;;;;;;;5074987;28;20613;-59
2022/01/16 00:42:22;;;;;;;1.60;1.50;;;;;;;;;;5076350;28;20437;-58
2022/01/16 00:44:47;;;;;;;0.20;0.20;;;;;;;;;;5078499;28;20372;-58
2022/01/16 00:47:13;;;;;;;0.77;0.77;;;;;;;;;;5082271;28;20189;-59
2022/01/16 00:49:39;;;;;;;0.43;0.43;;;;;;;;;;5082104;28;20454;-59
2022/01/16 00:52:05;;;;;;;0.00;0.00;;;;;;;;;;5074505;28;20020;-59
2022/01/16 00:54:30;;;;;;;0.00;0.00;;;;;;;;;;5079180;28;21924;-59
2022/01/16 00:56:55;;;;;;;0.20;0.20;;;;;;;;;;5072244;28;20082;-58
2022/01/16 00:59:21;;;;;;;0.00;0.00;;;;;;;;;;5067600;28;20078;-59
2022/01/16 01:01:46;;;;;;;0.00;0.00;;;;;;;;;;5067492;28;20033;-58
2022/01/16 01:04:11;;;;;;;1.27;1.27;;;;;;;;;;5066476;28;20033;-58
2022/01/16 01:06:37;;;;;;;0.57;0.57;;;;;;;;;;5068518;28;20022;-58
2022/01/16 01:09:02;;;;;;;1.45;1.45;;;;;;;;;;5070435;28;20035;-57
2022/01/16 01:11:29;;;;;;;2.55;2.15;;;;;;;;;;5072252;28;20115;-58
2022/01/16 01:16:23;;;;;;;2.85;0.80;;;;;;;;;;5073419;28;20461;-57
2022/01/16 01:18:48;;;;;;;1.10;1.00;;;;;;;;;;5074884;28;20078;-58
2022/01/16 01:21:27;;;;;;;4.28;2.78;;;;;;;;;;5078646;28;20464;-58
2022/01/16 01:23:52;;;;;;;2.90;0.60;;;;;;;;;;5074242;28;20043;-59
2022/01/16 01:26:18;;;;;;;3.20;2.72;;;;;;;;;;5074851;28;20020;-58
2022/01/16 01:28:43;;;;;;;0.47;0.47;;;;;;;;;;5071043;28;20024;-58
2022/01/16 01:31:11;;;;;;;2.03;1.95;;;;;;;;;;5076234;28;20579;-60
2022/01/16 01:33:36;;;;;;;2.67;2.08;;;;;;;;;;5066712;28;20028;-60
2022/01/16 01:36:01;;;;;;;0.00;0.00;;;;;;;;;;5067729;28;20656;-59
2022/01/16 01:38:27;;;;;;;2.10;1.98;;;;;;;;;;5070937;28;20020;-60
2022/01/16 01:40:52;;;;;;;1.27;1.15;;;;;;;;;;5066383;28;20058;-60
2022/01/16 01:51:16;;;;;;;0.05;0.05;;;;;;;;;;5078027;28;20073;-59
2022/01/16 01:53:42;;;;;;;0.00;0.00;;;;;;;;;;5082100;28;20115;-59
2022/01/16 01:56:09;;;;;;;0.22;0.22;;;;;;;;;;5080345;28;20024;-59
2022/01/16 01:58:34;;;;;;;0.00;0.00;;;;;;;;;;5079959;28;20032;-58
2022/01/16 02:01:00;;;;;;;2.15;1.30;;;;;;;;;;5080486;28;20027;-58
2022/01/16 02:05:57;;;;;;;0.00;0.00;;;;;;;;;;5081371;28;20024;-56
2022/01/16 02:08:22;;;;;;;0.00;0.00;;;;;;;;;;5074776;28;20017;-59
2022/01/16 02:10:48;;;;;;;1.35;1.25;;;;;;;;;;5072133;28;20094;-57
2022/01/16 02:13:25;;;;;;;2.53;2.17;;;;;;;;;;5076378;28;20476;-58
2022/01/16 02:31:45;;;;;;;3.17;3.03;;;;;;;;;;5077218;28;20028;-58
2022/01/16 02:36:59;;;;;;;0.88;0.88;;;;;;;;;;5071146;28;20116;-59
2022/01/16 02:39:24;;;;;;;;;;;;;;;;;;5078286;28;20445;-60
2022/01/16 02:41:52;;;;;;;1.23;1.23;;;;;;;;;;5084054;28;19908;-59
2022/01/16 02:44:32;;;;;;;0.80;0.80;;;;;;;;;;5077214;28;20028;-59
2022/01/16 02:46:58;;;;;;;0.17;0.17;;;;;;;;;;5079265;28;20067;-58
2022/01/16 02:49:25;;;;;;;0.00;0.00;;;;;;;;;;5079165;28;20492;-59
2022/01/16 02:51:53;;;;;;;0.80;0.80;;;;;;;;;;5074205;28;20099;-59
2022/01/16 02:54:19;;;;;;;0.00;0.00;;;;;;;;;;5081463;28;20063;-59
2022/01/16 02:56:45;;;;;;;3.00;2.90;;;;;;;;;;5082602;28;20060;-58
2022/01/16 02:59:11;;;;;;;2.15;2.03;;;;;;;;;;5081513;28;20081;-58
2022/01/16 03:01:36;;;;;;;0.45;0.45;;;;;;;;;;5078003;28;20488;-58
2022/01/16 03:04:01;;;;;;;0.00;0.00;;;;;;;;;;5081232;28;20028;-58
2022/01/16 03:06:27;;;;;;;3.10;2.90;;;;;;;;;;5075447;28;20038;-58
2022/01/16 03:08:52;;;;;;;0.00;0.00;;;;;;;;;;5080702;28;20028;-58
2022/01/16 03:13:49;;;;;;;0.32;0.32;;;;;;;;;;5076423;28;20024;-58
2022/01/16 03:16:16;;;;;;;1.00;0.93;;;;;;;;;;5080598;28;20024;-58
2022/01/16 03:24:09;;;;;;;1.25;1.25;;;;;;;;;;5083129;28;20043;-59
2022/01/16 03:26:34;;;;;;;5.75;5.28;;;;;;;;;;5078228;28;20376;-58
2022/01/16 03:28:59;;;;;;;11.13;10.65;;;;;;;;;;5080597;28;20453;-58
2022/01/16 03:31:24;;;;;;;0.00;0.00;;;;;;;;;;5080598;28;20512;-56
2022/01/16 03:33:50;;;;;;;0.90;0.90;;;;;;;;;;5083378;28;20484;-58
2022/01/16 03:36:15;;;;;;;4.78;2.45;;;;;;;;;;5073180;28;20429;-59
2022/01/16 03:38:40;;;;;;;1.65;1.55;;;;;;;;;;5080181;28;20017;-60
2022/01/16 03:41:05;;;;;;;0.00;0.00;;;;;;;;;;5070817;28;20017;-59
2022/01/16 03:43:31;;;;;;;2.65;1.92;;;;;;;;;;5071062;28;20029;-59
2022/01/16 03:45:56;;;;;;;0.00;0.00;;;;;;;;;;5075826;28;20044;-58
2022/01/16 03:48:21;;;;;;;0.00;0.00;;;;;;;;;;5083218;28;20074;-59
2022/01/16 03:50:46;;;;;;;0.45;0.45;;;;;;;;;;5078548;28;20024;-58
2022/01/16 03:53:12;;;;;;;0.20;0.20;;;;;;;;;;5078090;28;20032;-58
2022/01/16 03:55:37;;;;;;;2.28;2.10;;;;;;;;;;5077972;28;20029;-59
2022/01/16 03:58:03;;;;;;;1.73;1.65;;;;;;;;;;5075020;28;20016;-59
2022/01/16 04:00:28;;;;;;;0.40;0.40;;;;;;;;;;5076646;28;20020;-58
2022/01/16 04:02:54;;;;;;;0.82;0.82;;;;;;;;;;5078000;28;20750;-59
2022/01/16 04:05:19;;;;;;;0.00;0.00;;;;;;;;;;5071365;28;20061;-59
2022/01/16 04:07:45;;;;;;;2.92;2.70;;;;;;;;;;5076947;28;20055;-59
2022/01/16 04:10:10;;;;;;;0.47;0.47;;;;;;;;;;5071228;28;20028;-58
2022/01/16 04:12:38;;;;;;;4.05;3.88;;;;;;;;;;5079960;28;20028;-58
2022/01/16 04:17:29;;;;;;;3.15;3.05;;;;;;;;;;5081291;28;20034;-59
2022/01/16 04:19:55;;;;;;;0.00;0.00;;;;;;;;;;5073155;28;20028;-59
2022/01/16 04:22:20;;;;;;;4.68;2.80;;;;;;;;;;5079319;28;20130;-59
2022/01/16 04:24:46;;;;;;;0.85;0.85;;;;;;;;;;5080361;28;20780;-59
2022/01/16 04:27:11;;;;;;;0.00;0.00;;;;;;;;;;5082554;28;20430;-59
2022/01/16 04:29:37;;;;;;;1.55;1.45;;;;;;;;;;5078683;28;20024;-59
2022/01/16 04:32:03;;;;;;;0.00;0.00;;;;;;;;;;5078134;28;20020;-59
2022/01/16 04:34:28;;;;;;;0.00;0.00;;;;;;;;;;5077398;28;20024;-58
2022/01/16 04:36:53;;;;;;;2.20;1.45;;;;;;;;;;5078052;28;20032;-60
2022/01/16 04:39:21;;;;;;;0.65;0.65;;;;;;;;;;5073626;28;20111;-60
2022/01/16 04:44:30;;;;;;;3.20;2.92;;;;;;;;;;5078352;28;20077;-60
2022/01/16 04:46:56;;;;;;;0.00;0.00;;;;;;;;;;5083161;28;20048;-59
2022/01/16 04:49:21;;;;;;;1.38;1.05;;;;;;;;;;5083184;28;20020;-60
2022/01/16 04:51:46;;;;;;;1.02;1.00;;;;;;;;;;5084234;28;20024;-59
2022/01/16 04:54:12;;;;;;;0.45;0.45;;;;;;;;;;5071952;28;20033;-60
2022/01/16 04:56:37;;;;;;;3.95;0.80;;;;;;;;;;5073794;28;20540;-60
2022/01/16 04:59:02;;;;;;;0.00;0.00;;;;;;;;;;5073409;28;20012;-59
2022/01/16 05:01:28;;;;;;;3.40;1.10;;;;;;;;;;5070058;28;20047;-59
2022/01/16 05:03:53;;;;;;;0.70;0.70;;;;;;;;;;5084080;28;20028;-59
2022/01/16 05:06:18;;;;;;;1.10;0.98;;;;;;;;;;5074728;28;20028;-58
2022/01/16 05:08:44;;;;;;;0.50;0.50;;;;;;;;;;5070470;28;20024;-59
2022/01/16 05:11:10;;;;;;;0.70;0.70;;;;;;;;;;5072207;28;20363;-59
2022/01/16 05:18:46;;;;;;;0.00;0.00;;;;;;;;;;5078632;28;20547;-59
2022/01/16 05:21:11;;;;;;;2.30;1.65;;;;;;;;;;5079283;28;20020;-58
2022/01/16 05:23:36;;;;;;;2.40;0.65;;;;;;;;;;5082001;28;20060;-60
2022/01/16 05:26:03;;;;;;;2.92;2.72;;;;;;;;;;5072230;28;20412;-59
2022/01/16 05:28:28;;;;;;;0.00;0.00;;;;;;;;;;5077753;28;20019;-60
2022/01/16 05:30:54;;;;;;;5.78;5.00;;;;;;;;;;5075028;28;20017;-57
2022/01/16 05:33:19;;;;;;;1.48;0.80;;;;;;;;;;5074694;28;20012;-59
2022/01/16 05:35:44;;;;;;;1.20;1.20;;;;;;;;;;5068067;28;20012;-57
2022/01/16 05:38:10;;;;;;;4.00;2.38;;;;;;;;;;5074760;28;20374;-58
2022/01/16 05:40:35;;;;;;;1.60;1.50;;;;;;;;;;5081866;28;20016;-58
2022/01/16 05:43:01;;;;;;;1.17;1.17;;;;;;;;;;5077855;28;20029;-59
2022/01/16 05:45:26;;;;;;;2.53;2.33;;;;;;;;;;5076565;28;20596;-59
2022/01/16 05:47:52;;;;;;;0.73;0.73;;;;;;;;;;5076922;28;20076;-58
2022/01/16 05:50:17;;;;;;;4.03;1.35;;;;;;;;;;5068494;28;20032;-59
2022/01/16 05:52:43;;;;;;;1.77;1.25;;;;;;;;;;5071317;28;20031;-58
2022/01/16 05:55:08;;;;;;;13.55;8.98;;;;;;;;;;5069765;28;20031;-58
2022/01/16 05:57:33;;;;;;;3.47;3.28;;;;;;;;;;5071917;28;20031;-58
2022/01/16 05:59:59;;;;;;;5.07;3.00;;;;;;;;;;5073410;28;20031;-59
2022/01/16 06:02:25;;;;;;;0.00;0.00;;;;;;;;;;5073294;28;20016;-59
2022/01/16 06:04:50;;;;;;;0.63;0.63;;;;;;;;;;5075355;28;20020;-59
2022/01/16 06:07:15;;;;;;;0.80;0.80;;;;;;;;;;5077728;28;20443;-57
2022/01/16 06:09:40;;;;;;;0.00;0.00;;;;;;;;;;5082144;28;20023;-58
2022/01/16 06:12:06;;;;;;;1.45;1.45;;;;;;;;;;5085718;28;20012;-58
2022/01/16 06:14:31;;;;;;;0.00;0.00;;;;;;;;;;5080929;28;20032;-56
2022/01/16 06:16:57;;;;;;;1.05;1.05;;;;;;;;;;5078415;28;20116;-57
2022/01/16 06:19:22;;;;;;;1.48;1.40;;;;;;;;;;5083908;28;20468;-55
2022/01/16 06:21:48;;;;;;;0.03;0.03;;;;;;;;;;5081910;28;20483;-54
2022/01/16 06:24:13;;;;;;;2.28;2.08;;;;;;;;;;5081372;28;20029;-55
2022/01/16 06:26:38;;;;;;;3.17;3.08;;;;;;;;;;5081585;28;20392;-56
2022/01/16 06:29:04;;;;;;;0.35;0.35;;;;;;;;;;5089868;28;20051;-55
2022/01/16 06:31:29;;;;;;;2.33;2.20;;;;;;;;;;5085942;28;20051;-56
2022/01/16 06:33:54;;;;;;;5.63;2.97;;;;;;;;;;5076985;28;20491;-58
2022/01/16 06:36:20;;;;;;;0.57;0.57;;;;;;;;;;5083932;28;20024;-54
2022/01/16 06:38:46;;;;;;;1.58;1.30;;;;;;;;;;5084637;28;20019;-56
2022/01/16 06:41:11;;;;;;;0.32;0.32;;;;;;;;;;5080763;28;20028;-55
2022/01/16 06:43:37;;;;;;;2.30;1.30;;;;;;;;;;5077476;28;20036;-57
2022/01/16 06:46:02;;;;;;;3.25;3.13;;;;;;;;;;5078502;28;20044;-56
2022/01/16 06:48:27;;;;;;;0.00;0.00;;;;;;;;;;5078555;28;20052;-55
2022/01/16 06:50:52;;;;;;;4.18;1.95;;;;;;;;;;5086856;28;20021;-56
2022/01/16 06:53:18;;;;;;;0.75;0.75;;;;;;;;;;5080830;28;20060;-56
2022/01/16 06:55:43;;;;;;;0.47;0.47;;;;;;;;;;5079165;28;20233;-56
2022/01/16 06:58:08;;;;;;;0.10;0.10;;;;;;;;;;5078439;28;20031;-54
2022/01/16 07:00:33;;;;;;;1.45;1.35;;;;;;;;;;5082292;28;20019;-56
2022/01/16 07:02:59;;;;;;;4.65;1.60;;;;;;;;;;5077234;28;20013;-57
2022/01/16 07:05:24;;;;;;;1.00;0.95;;;;;;;;;;5083047;28;20122;-57
2022/01/16 07:07:49;;;;;;;2.65;2.45;;;;;;;;;;5079283;28;20111;-56
2022/01/16 07:10:14;;;;;;;0.55;0.55;;;;;;;;;;5079817;28;20012;-55
2022/01/16 07:12:39;;;;;;;0.98;0.93;;;;;;;;;;5082778;28;20472;-56
2022/01/16 07:15:05;;;;;;;1.45;0.80;;;;;;;;;;5085804;28;20028;-54
2022/01/16 07:17:30;;;;;;;1.42;1.38;;;;;;;;;;5084196;28;20027;-56
2022/01/16 07:19:55;;;;;;;0.80;0.68;;;;;;;;;;5084779;28;20021;-55
2022/01/16 07:22:21;;;;;;;3.25;3.03;;;;;;;;;;5080246;28;20016;-56
2022/01/16 07:24:47;;;;;;;2.80;2.63;;;;;;;;;;5085120;28;20091;-55
2022/01/16 07:27:13;;;;;;;1.00;1.00;;;;;;;;;;5082450;28;20020;-55
2022/01/16 07:29:38;;;;;;;0.00;0.00;;;;;;;;;;5083830;28;20091;-55
2022/01/16 07:32:03;;;;;;;0.00;0.00;;;;;;;;;;5078318;28;20032;-55
2022/01/16 07:34:28;;;;;;;0.00;0.00;;;;;;;;;;5080852;28;20052;-54
2022/01/16 07:36:54;;;;;;;0.20;0.20;;;;;;;;;;5076820;28;20526;-55
2022/01/16 07:39:19;;;;;;;0.63;0.52;;;;;;;;;;5081899;28;20065;-54
2022/01/16 07:41:44;;;;;;;0.80;0.80;;;;;;;;;;5080508;28;20128;-56
2022/01/16 07:44:09;;;;;;;0.00;0.00;;;;;;;;;;5080303;28;20095;-56
2022/01/16 07:46:35;;;;;;;0.10;0.10;;;;;;;;;;5079048;28;20519;-56
2022/01/16 07:49:00;;;;;;;0.00;0.00;;;;;;;;;;5077742;28;20115;-55
2022/01/16 07:51:25;;;;;;;1.95;1.77;;;;;;;;;;5080914;28;20024;-54
2022/01/16 07:53:52;;;;;;;0.52;0.40;;;;;;;;;;5078820;28;20028;-54
2022/01/16 07:56:17;;;;;;;0.00;0.00;;;;;;;;;;5079926;28;20052;-55
2022/01/16 07:58:42;;;;;;;0.75;0.75;;;;;;;;;;5083252;28;20047;-55
2022/01/16 08:01:08;;;;;;;0.00;0.00;;;;;;;;;;5078994;28;20099;-56
2022/01/16 08:03:33;;;;;;;0.00;0.00;;;;;;;;;;5079068;28;20024;-57
2022/01/16 08:05:58;;;;;;;0.00;0.00;;;;;;;;;;5081492;28;20027;-55
2022/01/16 08:08:24;;;;;;;0.00;0.00;;;;;;;;;;5083458;28;20023;-57
2022/01/16 08:10:49;;;;;;;0.10;0.10;;;;;;;;;;5082104;28;20021;-55
2022/01/16 08:13:14;;;;;;;0.00;0.00;;;;;;;;;;5075120;28;20039;-56
2022/01/16 08:15:40;;;;;;;0.00;0.00;;;;;;;;;;5076017;28;20028;-56
2022/01/16 08:18:05;;;;;;;0.00;0.00;;;;;;;;;;5084586;28;20028;-57
2022/01/16 08:20:31;;;;;;;0.45;0.45;;;;;;;;;;5077921;28;20036;-57
2022/01/16 08:22:56;;;;;;;0.00;0.00;;;;;;;;;;5082541;28;20012;-57
2022/01/16 08:25:22;;;;;;;0.75;0.75;;;;;;;;;;5078047;28;20031;-58
2022/01/16 08:27:47;;;;;;;0.00;0.00;;;;;;;;;;5080810;28;20537;-58
2022/01/16 08:30:13;;;;;;;0.60;0.60;;;;;;;;;;5079620;28;20103;-58
2022/01/16 08:32:39;;;;;;;0.15;0.15;;;;;;;;;;5083949;28;20460;-56
2022/01/16 08:35:05;;;;;;;1.88;1.77;;;;;;;;;;5077974;28;20028;-57
2022/01/16 08:37:30;;;;;;;2.08;1.90;;;;;;;;;;5075895;28;20020;-57
2022/01/16 08:39:56;;;;;;;0.20;0.20;;;;;;;;;;5079595;28;20023;-58
2022/01/16 08:42:21;;;;;;;0.38;0.38;;;;;;;;;;5081171;28;20051;-57
2022/01/16 08:44:46;;;;;;;1.35;1.27;;;;;;;;;;5077714;28;20024;-56
2022/01/16 08:47:11;;;;;;;0.22;0.22;;;;;;;;;;5080522;28;20052;-57
2022/01/16 08:49:37;;;;;;;0.73;0.73;;;;;;;;;;5079882;28;20031;-57
2022/01/16 08:52:03;;;;;;;15.88;1.95;;;;;;;;;;5079646;28;20116;-57
2022/01/16 08:54:28;;;;;;;0.00;0.00;;;;;;;;;;5076923;28;20028;-57
2022/01/16 08:56:53;;;;;;;0.10;0.10;;;;;;;;;;5076020;28;20070;-56
2022/01/16 08:59:19;;;;;;;0.47;0.47;;;;;;;;;;5080911;28;20028;-57
2022/01/16 09:01:44;;;;;;;1.63;0.45;;;;;;;;;;5083177;28;20104;-57
2022/01/16 09:04:09;;;;;;;0.05;0.05;;;;;;;;;;5080333;28;20027;-57
2022/01/16 09:06:35;;;;;;;0.10;0.10;;;;;;;;;;5080371;28;20030;-55
2022/01/16 09:09:00;;;;;;;0.00;0.00;;;;;;;;;;5074039;28;20103;-55
2022/01/16 09:11:25;;;;;;;0.00;0.00;;;;;;;;;;5086255;28;20021;-56
2022/01/16 09:13:52;;;;;;;8.25;0.90;;;;;;;;;;5077044;28;20528;-57
2022/01/16 09:16:18;;;;;;;0.45;0.45;;;;;;;;;;5076283;28;20120;-57
2022/01/16 09:18:43;;;;;;;0.32;0.32;;;;;;;;;;5078182;28;20020;-57
2022/01/16 09:21:09;;;;;;;0.00;0.00;;;;;;;;;;5083678;28;20009;-57
2022/01/16 09:23:35;;;;;;;0.00;0.00;;;;;;;;;;5076959;28;20025;-57
2022/01/16 09:26:01;;;;;;;2.80;2.70;;;;;;;;;;5076577;28;20021;-53
2022/01/16 09:28:26;;;;;;;2.80;2.60;;;;;;;;;;5075838;28;20031;-53
2022/01/16 09:30:52;;;;;;;1.27;1.20;;;;;;;;;;5076999;28;20043;-54
2022/01/16 09:33:17;;;;;;;0.00;0.00;;;;;;;;;;5078953;28;20085;-54
2022/01/16 09:35:43;;;;;;;2.78;2.53;;;;;;;;;;5075875;28;20020;-50
2022/01/16 09:38:08;;;;;;;2.38;2.28;;;;;;;;;;5080077;28;20102;-54
2022/01/16 09:40:34;;;;;;;2.45;2.35;;;;;;;;;;5077072;28;20035;-57
2022/01/16 09:42:59;;;;;;;0.88;0.88;;;;;;;;;;5077946;28;20026;-55
2022/01/16 09:45:24;;;;;;;0.63;0.63;;;;;;;;;;5077957;28;20024;-55
2022/01/16 09:47:51;;;;;;;1.80;0.57;;;;;;;;;;5073709;28;20087;-55
2022/01/16 09:50:18;;;;;;;2.75;2.55;;;;;;;;;;5076002;28;20464;-56
2022/01/16 09:52:44;;;;;;;0.80;0.80;;;;;;;;;;5076928;28;20081;-53
2022/01/16 09:55:09;;;;;;;1.05;1.02;;;;;;;;;;5074554;28;20028;-52
2022/01/16 09:57:35;;;;;;;6.03;3.75;;;;;;;;;;5072667;28;20373;-53
2022/01/16 10:00:00;;;;;;;5.20;4.80;;;;;;;;;;5077904;28;20020;-55
2022/01/16 10:02:26;;;;;;;1.40;1.40;;;;;;;;;;5080877;28;20046;-54
2022/01/16 10:04:53;;;;;;;0.13;0.13;;;;;;;;;;5073573;28;20498;-55
2022/01/16 10:07:19;;;;;;;1.10;0.85;;;;;;;;;;5075370;28;20020;-55
2022/01/16 10:10:03;;;;;;;1.88;1.77;;;;;;;;;;5079256;28;20028;-55
2022/01/16 10:12:28;;;;;;;1.65;1.65;;;;;;;;;;5075716;28;20028;-55
2022/01/16 10:14:53;;;;;;;3.83;3.70;;;;;;;;;;5076099;28;20082;-55
2022/01/16 10:17:20;;;;;;;11.18;2.45;;;;;;;;;;5076390;28;20028;-54
2022/01/16 10:19:46;;;;;;;1.83;1.83;;;;;;;;;;5078996;28;20056;-54
2022/01/16 10:22:14;;;;;;;7.10;6.40;;;;;;;;;;5076401;28;20429;-55
2022/01/16 10:24:49;;;;;;;3.03;2.92;;;;;;;;;;5072363;28;20037;-57
2022/01/16 10:27:17;;;;;;;0.10;0.10;;;;;;;;;;5073469;28;20389;-54
2022/01/16 10:29:43;;;;;;;1.70;1.60;;;;;;;;;;5076027;28;20039;-57
2022/01/16 10:32:22;;;;;;;2.88;2.53;;;;;;;;;;5073709;28;20020;-56
2022/01/16 10:34:49;;;;;;;5.90;4.03;;;;;;;;;;5077245;28;20063;-57
2022/01/16 10:37:21;;;;;;;8.63;4.10;;;;;;;;;;5072991;28;20093;-53
2022/01/16 10:39:58;;;;;;;7.20;5.38;;;;;;;;;;5074412;28;20107;-54
2022/01/16 10:42:24;;;;;;;6.00;5.38;;;;;;;;;;5073291;28;20767;-56
2022/01/16 10:45:16;;;;;;;1.20;1.20;;;;;;;;;;5072401;28;20020;-56
2022/01/16 10:47:44;;;;;;;4.13;2.60;;;;;;;;;;5070626;28;20052;-56
2022/01/16 10:50:11;;;;;;;1.80;1.80;;;;;;;;;;5079327;28;20050;-55
2022/01/16 10:52:49;;;;;;;6.43;4.60;;;;;;;;;;5077470;28;20461;-55
2022/01/16 10:55:14;;;;;;;0.45;0.45;;;;;;;;;;5078256;28;20021;-54
2022/01/16 10:57:40;;;;;;;7.32;3.00;;;;;;;;;;5081469;28;20165;-56
2022/01/16 11:00:08;;;;;;;1.55;0.93;;;;;;;;;;5082583;28;20107;-56
2022/01/16 11:02:33;;;;;;;1.35;1.35;;;;;;;;;;5079913;28;20023;-56
2022/01/16 11:05:09;;;;;;;5.22;2.85;;;;;;;;;;5081880;28;20099;-54
2022/01/16 11:07:34;;;;;;;3.53;3.20;;;;;;;;;;5077973;28;20026;-55
2022/01/16 11:10:00;;;;;;;8.57;6.63;;;;;;;;;;5084043;28;20515;-54
2022/01/16 11:12:26;;;;;;;9.05;7.90;;;;;;;;;;5074071;28;20062;-55
2022/01/16 11:14:51;;;;;;;6.60;4.05;;;;;;;;;;5079355;28;20049;-54
2022/01/16 11:17:16;;;;;;;7.57;5.63;;;;;;;;;;5081433;28;20035;-55
2022/01/16 11:19:42;;;;;;;2.95;2.70;;;;;;;;;;5079306;28;20387;-56
2022/01/16 11:22:10;;;;;;;11.63;10.77;;;;;;;;;;5075665;28;20035;-53
2022/01/16 11:24:47;;;;;;;2.85;2.45;;;;;;;;;;5077704;28;20017;-56
2022/01/16 11:27:15;;;;;;;3.38;3.17;;;;;;;;;;5078367;28;20033;-55
2022/01/16 11:29:42;;;;;;;6.10;5.07;;;;;;;;;;5081201;28;20020;-53
2022/01/16 11:32:08;;;;;;;4.78;3.75;;;;;;;;;;5075382;28;20028;-53
2022/01/16 11:34:35;;;;;;;6.18;5.78;;;;;;;;;;5084348;28;20475;-56
2022/01/16 11:37:01;;;;;;;3.95;3.65;;;;;;;;;;5075285;28;20019;-55
2022/01/16 11:39:33;;;;;;;12.77;6.50;;;;;;;;;;5083990;28;20021;-54
2022/01/16 11:41:59;;;;;;;3.25;3.00;;;;;;;;;;5078173;28;20030;-57
2022/01/16 11:44:27;;;;;;;4.65;3.30;;;;;;;;;;5080762;28;20042;-55
2022/01/16 11:46:57;;;;;;;40.07;7.43;;;;;;;;;;5078315;28;20040;-54
2022/01/16 11:49:39;;;;;;;5.28;2.80;;;;;;;;;;5078883;28;20783;-54
2022/01/16 11:52:09;;;;;;;0.08;0.08;;;;;;;;;;5077766;28;20028;-54
2022/01/16 11:54:39;;;;;;;9.70;5.82;;;;;;;;;;5078287;28;20019;-56
2022/01/16 11:57:25;;;;;;;4.80;4.40;;;;;;;;;;5081302;28;20024;-56
2022/01/16 11:59:53;;;;;;;3.75;3.50;;;;;;;;;;5076534;28;20043;-56
2022/01/16 12:02:23;;;;;;;1.17;1.08;;;;;;;;;;5079596;28;20025;-57
2022/01/16 12:04:49;;;;;;;0.40;0.40;;;;;;;;;;5077888;28;20046;-56
2022/01/16 12:07:17;;;;;;;6.43;4.57;;;;;;;;;;5078788;28;20017;-55
2022/01/16 12:12:17;;;;;;;1.88;1.77;;;;;;;;;;5080044;28;20028;-56
2022/01/16 12:15:01;;;;;;;6.88;2.28;;;;;;;;;;5078502;28;20524;-55
2022/01/16 12:17:43;;;;;;;3.60;2.72;;;;;;;;;;5072890;28;20410;-55
2022/01/16 12:20:15;;;;;;;2.45;2.35;;;;;;;;;;5076731;28;20021;-56
2022/01/16 12:22:46;;;;;;;1.38;1.00;;;;;;;;;;5080205;28;20024;-56
2022/01/16 12:25:37;;;;;;;3.15;2.08;;;;;;;;;;5074157;28;20020;-54
2022/01/16 12:28:08;;;;;;;3.13;3.03;;;;;;;;;;5071997;28;20035;-54
2022/01/16 12:30:35;;;;;;;10.15;4.13;;;;;;;;;;5074072;28;20051;-51
2022/01/16 12:33:08;;;;;;;3.63;3.35;;;;;;;;;;5074325;28;20550;-51
2022/01/16 12:35:49;;;;;;;0.00;0.00;;;;;;;;;;5072033;28;20026;-55
2022/01/16 12:38:16;;;;;;;5.10;3.47;;;;;;;;;;5079629;28;20094;-53
2022/01/16 12:40:43;;;;;;;9.15;6.78;;;;;;;;;;5080910;28;20020;-52
2022/01/16 12:43:13;;;;;;;7.88;4.50;;;;;;;;;;5077675;28;20066;-54
2022/01/16 12:45:39;;;;;;;0.03;0.03;;;;;;;;;;5075921;28;20109;-53
2022/01/16 12:48:05;;;;;;;11.02;5.25;;;;;;;;;;5075924;28;20064;-54
2022/01/16 12:50:31;;;;;;;1.00;0.98;;;;;;;;;;5076317;28;20037;-57
2022/01/16 12:52:56;;;;;;;3.30;3.00;;;;;;;;;;5075761;28;20364;-58
2022/01/16 12:55:28;;;;;;;2.00;1.90;;;;;;;;;;5071541;28;20115;-57
2022/01/16 12:57:54;;;;;;;1.45;1.17;;;;;;;;;;5077688;28;20437;-56
2022/01/16 13:00:19;;;;;;;4.18;3.88;;;;;;;;;;5076622;28;20043;-52
2022/01/16 13:02:53;;;;;;;2.63;2.53;;;;;;;;;;5076210;28;20028;-54
2022/01/16 13:05:20;;;;;;;0.80;0.80;;;;;;;;;;5080198;28;20427;-51
2022/01/16 13:07:45;;;;;;;1.75;1.75;;;;;;;;;;5078009;28;20028;-57
2022/01/16 13:10:10;;;;;;;2.92;2.58;;;;;;;;;;5078230;28;20035;-54
2022/01/16 13:12:35;;;;;;;1.38;1.27;;;;;;;;;;5076082;28;20027;-56
2022/01/16 13:15:01;;;;;;;11.20;3.88;;;;;;;;;;5072676;28;20024;-53
2022/01/16 13:17:26;;;;;;;0.38;0.38;;;;;;;;;;5075603;28;20025;-54
2022/01/16 13:19:54;;;;;;;0.00;0.00;;;;;;;;;;5070047;28;20024;-54
2022/01/16 13:22:23;;;;;;;1.13;1.13;;;;;;;;;;5073245;28;20101;-54
2022/01/16 13:24:48;;;;;;;5.10;3.83;;;;;;;;;;5078164;28;20070;-55
2022/01/16 13:27:31;;;;;;;2.80;2.00;;;;;;;;;;5078472;28;20770;-55
2022/01/16 13:30:34;;;;;;;5.65;3.45;;;;;;;;;;5072888;28;20020;-56
2022/01/16 13:33:03;;;;;;;6.55;5.88;;;;;;;;;;5022755;28;20091;-54
2022/01/16 13:35:29;;;;;;;4.85;4.00;;;;;;;;;;5069475;28;20028;-56
2022/01/16 13:38:08;;;;;;;3.15;2.85;;;;;;;;;;5065854;28;20032;-60
2022/01/16 13:40:33;;;;;;;2.13;2.03;;;;;;;;;;5081099;28;20458;-59
2022/01/16 13:43:12;;;;;;;3.78;3.58;;;;;;;;;;5073344;28;20024;-60
2022/01/16 13:45:39;;;;;;;5.18;3.67;;;;;;;;;;5078465;28;20124;-59
2022/01/16 13:48:04;;;;;;;8.23;5.47;;;;;;;;;;5070408;28;20438;-58
2022/01/16 13:50:31;;;;;;;6.10;5.72;;;;;;;;;;5072952;28;20032;-61
2022/01/16 13:53:02;;;;;;;0.00;0.00;;;;;;;;;;5069702;28;20089;-56
2022/01/16 13:55:28;;;;;;;0.55;0.55;;;;;;;;;;5065017;28;20028;-57
2022/01/16 13:57:53;;;;;;;0.22;0.22;;;;;;;;;;5073378;28;20028;-57
2022/01/16 14:00:20;;;;;;;0.00;0.00;;;;;;;;;;5076925;28;20039;-59
2022/01/16 14:02:45;;;;;;;2.47;1.75;;;;;;;;;;5071517;28;20022;-56
2022/01/16 14:05:20;;;;;;;5.78;5.28;;;;;;;;;;5071638;28;20111;-57
2022/01/16 14:07:46;;;;;;;4.70;2.40;;;;;;;;;;5071771;28;20027;-58
2022/01/16 14:10:11;;;;;;;0.00;0.00;;;;;;;;;;5080621;28;20032;-57
2022/01/16 14:12:53;;;;;;;7.45;2.55;;;;;;;;;;5080737;28;20096;-58
2022/01/16 14:15:18;;;;;;;3.05;2.88;;;;;;;;;;5071505;28;20018;-57
2022/01/16 14:17:55;;;;;;;3.13;2.88;;;;;;;;;;5079930;28;20381;-57
2022/01/16 14:20:35;;;;;;;5.38;2.38;;;;;;;;;;5075293;28;20028;-57
2022/01/16 14:23:09;;;;;;;2.67;2.58;;;;;;;;;;5078180;28;20016;-58
2022/01/16 14:25:34;;;;;;;2.40;0.90;;;;;;;;;;5082951;28;20020;-59
2022/01/16 14:28:01;;;;;;;7.45;2.63;;;;;;;;;;5078665;28;20040;-56
2022/01/16 14:30:26;;;;;;;5.57;5.18;;;;;;;;;;5083775;28;20019;-57
2022/01/16 14:32:51;;;;;;;0.68;0.68;;;;;;;;;;5079347;28;20028;-56
2022/01/16 14:35:17;;;;;;;0.10;0.10;;;;;;;;;;5083456;28;20024;-56
2022/01/16 14:37:42;;;;;;;3.50;3.25;;;;;;;;;;5086690;28;20055;-57
2022/01/16 14:40:08;;;;;;;5.53;4.85;;;;;;;;;;5078851;28;20524;-56
2022/01/16 14:42:38;;;;;;;1.33;1.27;;;;;;;;;;5085591;28;20019;-57
2022/01/16 14:45:05;;;;;;;1.35;1.30;;;;;;;;;;5080659;28;20021;-57
2022/01/16 14:47:30;;;;;;;0.75;0.75;;;;;;;;;;5079847;28;20458;-57
2022/01/16 14:49:55;;;;;;;3.75;2.97;;;;;;;;;;5077310;28;20032;-56
2022/01/16 14:52:21;;;;;;;0.80;0.80;;;;;;;;;;5076693;28;20052;-57
2022/01/16 14:54:47;;;;;;;0.00;0.00;;;;;;;;;;5075616;28;20473;-58
2022/01/16 14:57:12;;;;;;;0.47;0.47;;;;;;;;;;5076376;28;20510;-58
2022/01/16 14:59:38;;;;;;;4.45;4.03;;;;;;;;;;5077408;28;20030;-58
2022/01/16 15:02:03;;;;;;;5.47;3.60;;;;;;;;;;5084409;28;20024;-57
2022/01/16 15:04:28;;;;;;;14.63;6.75;;;;;;;;;;5078177;28;20047;-56
2022/01/16 15:06:54;;;;;;;6.25;5.07;;;;;;;;;;5082250;28;20024;-57
2022/01/16 15:09:19;;;;;;;1.30;1.27;;;;;;;;;;5080046;28;20031;-57
2022/01/16 15:11:44;;;;;;;13.25;12.70;;;;;;;;;;5081276;28;20043;-57
2022/01/16 15:14:09;;;;;;;0.00;0.00;;;;;;;;;;5078566;28;20027;-57
2022/01/16 15:16:36;;;;;;;3.50;3.38;;;;;;;;;;5076443;28;20047;-58
2022/01/16 15:19:06;;;;;;;1.55;1.55;;;;;;;;;;5081773;28;20946;-57
2022/01/16 15:21:44;;;;;;;8.52;2.25;;;;;;;;;;5080363;28;20043;-58
2022/01/16 15:24:09;;;;;;;3.50;2.08;;;;;;;;;;5073738;28;20019;-57
2022/01/16 15:26:34;;;;;;;0.00;0.00;;;;;;;;;;5074301;28;20104;-56
2022/01/16 15:29:00;;;;;;;3.35;2.92;;;;;;;;;;5081131;28;20469;-57
2022/01/16 15:31:25;;;;;;;1.90;1.45;;;;;;;;;;5079211;28;20020;-56
2022/01/16 15:33:51;;;;;;;1.55;1.45;;;;;;;;;;5083349;28;20112;-59
2022/01/16 15:36:16;;;;;;;0.05;0.05;;;;;;;;;;5075806;28;20025;-58